createdAt,value
2019-01-25T00:00:11.385Z,1009.92
2019-01-25T00:01:11.376Z,1009.96
2019-01-25T00:02:11.371Z,1009.91
2019-01-25T00:03:11.354Z,1009.91
2019-01-25T00:04:11.344Z,1009.90
2019-01-25T00:05:11.332Z,1009.95
2019-01-25T00:06:11.321Z,1009.93
2019-01-25T00:07:11.310Z,1009.92
2019-01-25T00:08:11.300Z,1009.91
2019-01-25T00:09:11.288Z,1009.90
2019-01-25T00:10:11.279Z,1009.92
2019-01-25T00:11:11.266Z,1009.92
2019-01-25T00:12:11.256Z,1009.95
2019-01-25T00:13:11.251Z,1009.98
2019-01-25T00:14:11.235Z,1009.97
2019-01-25T00:15:11.223Z,1009.94
2019-01-25T00:16:11.220Z,1009.92
2019-01-25T00:17:11.271Z,1009.99
2019-01-25T00:18:11.193Z,1010.02
2019-01-25T00:19:11.181Z,1009.97
2019-01-25T00:20:11.263Z,1009.95
2019-01-25T00:21:11.162Z,1009.95
2019-01-25T00:22:11.149Z,1009.97
2019-01-25T00:23:11.139Z,1009.97
2019-01-25T00:24:11.129Z,1009.93
2019-01-25T00:25:11.121Z,1009.91
2019-01-25T00:26:11.105Z,1009.92
2019-01-25T00:27:11.096Z,1009.92
2019-01-25T00:28:11.085Z,1009.94
2019-01-25T00:29:11.075Z,1009.94
2019-01-25T00:30:11.063Z,1009.94
2019-01-25T00:31:11.051Z,1009.95
2019-01-25T00:32:11.043Z,1009.96
2019-01-25T00:33:11.030Z,1010.00
2019-01-25T00:34:11.026Z,1010.05
2019-01-25T00:35:11.009Z,1010.06
2019-01-25T00:36:11.018Z,1010.07
2019-01-25T00:37:10.987Z,1010.06
2019-01-25T00:38:10.978Z,1010.08
2019-01-25T00:39:10.975Z,1010.01
2019-01-25T00:40:10.958Z,1010.05
2019-01-25T00:41:10.946Z,1010.03
2019-01-25T00:42:10.937Z,1010.02
2019-01-25T00:43:10.923Z,1009.99
2019-01-25T00:44:10.912Z,1010.04
2019-01-25T00:45:10.904Z,1010.08
2019-01-25T00:46:10.897Z,1010.12
2019-01-25T00:47:10.881Z,1010.04
2019-01-25T00:48:10.872Z,1010.07
2019-01-25T00:49:10.859Z,1010.07
2019-01-25T00:50:10.849Z,1010.06
2019-01-25T00:51:10.840Z,1010.10
2019-01-25T00:52:10.826Z,1010.07
2019-01-25T00:53:10.816Z,1010.04
2019-01-25T00:54:10.809Z,1010.05
2019-01-25T00:55:10.797Z,1010.07
2019-01-25T00:56:10.787Z,1010.01
2019-01-25T00:57:10.774Z,1010.03
2019-01-25T00:58:10.765Z,1010.03
2019-01-25T00:59:10.756Z,1010.01
2019-01-25T01:00:10.743Z,1010.06
2019-01-25T01:01:10.730Z,1010.02
2019-01-25T01:02:10.720Z,1009.98
2019-01-25T01:03:10.710Z,1010.03
2019-01-25T01:04:10.700Z,1010.03
2019-01-25T01:05:10.687Z,1010.01
2019-01-25T01:06:10.677Z,1009.98
2019-01-25T01:07:10.666Z,1010.02
2019-01-25T01:08:10.655Z,1010.00
2019-01-25T01:09:10.646Z,1010.00
2019-01-25T01:10:14.203Z,1010.04
2019-01-25T01:11:10.626Z,1010.08
2019-01-25T01:12:10.613Z,1010.05
2019-01-25T01:13:10.602Z,1010.03
2019-01-25T01:14:10.590Z,1010.03
2019-01-25T01:15:10.595Z,1010.04
2019-01-25T01:16:11.492Z,1010.00
2019-01-25T01:17:10.572Z,1010.05
2019-01-25T01:18:10.547Z,1010.03
2019-01-25T01:19:10.540Z,1010.05
2019-01-25T01:20:10.527Z,1010.07
2019-01-25T01:21:10.520Z,1010.08
2019-01-25T01:22:10.511Z,1010.10
2019-01-25T01:23:10.494Z,1010.05
2019-01-25T01:24:10.485Z,1010.16
2019-01-25T01:25:10.472Z,1010.11
2019-01-25T01:26:10.464Z,1010.15
2019-01-25T01:27:10.450Z,1010.16
2019-01-25T01:28:10.446Z,1010.13
2019-01-25T01:29:10.429Z,1010.21
2019-01-25T01:30:10.419Z,1010.19
2019-01-25T01:31:10.414Z,1010.15
2019-01-25T01:32:10.398Z,1010.15
2019-01-25T01:33:10.387Z,1010.13
2019-01-25T01:34:10.378Z,1010.12
2019-01-25T01:35:10.368Z,1010.10
2019-01-25T01:36:10.356Z,1010.09
2019-01-25T01:37:10.344Z,1010.09
2019-01-25T01:38:10.335Z,1010.07
2019-01-25T01:39:10.322Z,1010.08
2019-01-25T01:40:10.315Z,1010.11
2019-01-25T01:41:10.300Z,1010.11
2019-01-25T01:42:10.289Z,1010.14
2019-01-25T01:43:10.279Z,1010.09
2019-01-25T01:44:10.273Z,1010.16
2019-01-25T01:45:10.258Z,1010.15
2019-01-25T01:46:10.246Z,1010.16
2019-01-25T01:47:10.241Z,1010.13
2019-01-25T01:48:10.278Z,1010.14
2019-01-25T01:49:10.214Z,1010.19
2019-01-25T01:50:10.205Z,1010.21
2019-01-25T01:51:10.195Z,1010.19
2019-01-25T01:52:10.182Z,1010.22
2019-01-25T01:53:10.176Z,1010.19
2019-01-25T01:54:10.161Z,1010.23
2019-01-25T01:55:10.150Z,1010.18
2019-01-25T01:56:10.141Z,1010.18
2019-01-25T01:57:10.128Z,1010.21
2019-01-25T01:58:10.118Z,1010.18
2019-01-25T01:59:10.108Z,1010.19
2019-01-25T02:00:10.096Z,1010.15
2019-01-25T02:01:10.085Z,1010.16
2019-01-25T02:02:10.078Z,1010.21
2019-01-25T02:03:10.064Z,1010.16
2019-01-25T02:04:10.056Z,1010.19
2019-01-25T02:05:10.044Z,1010.17
2019-01-25T02:06:10.031Z,1010.17
2019-01-25T02:07:10.022Z,1010.15
2019-01-25T02:08:10.019Z,1010.14
2019-01-25T02:09:09.999Z,1010.18
2019-01-25T02:10:09.990Z,1010.17
2019-01-25T02:11:09.977Z,1010.19
2019-01-25T02:12:09.967Z,1010.17
2019-01-25T02:13:09.958Z,1010.17
2019-01-25T02:14:09.947Z,1010.15
2019-01-25T02:15:09.936Z,1010.10
2019-01-25T02:16:09.925Z,1010.15
2019-01-25T02:17:09.913Z,1010.16
2019-01-25T02:18:09.905Z,1010.17
2019-01-25T02:19:09.892Z,1010.15
2019-01-25T02:20:09.881Z,1010.13
2019-01-25T02:21:09.873Z,1010.09
2019-01-25T02:22:09.862Z,1010.08
2019-01-25T02:23:09.848Z,1010.08
2019-01-25T02:24:09.837Z,1010.06
2019-01-25T02:25:09.831Z,1010.06
2019-01-25T02:26:09.817Z,1010.07
2019-01-25T02:27:09.805Z,1010.07
2019-01-25T02:28:09.795Z,1010.07
2019-01-25T02:29:09.785Z,1010.06
2019-01-25T02:30:09.774Z,1010.03
2019-01-25T02:31:09.766Z,1010.03
2019-01-25T02:32:09.755Z,1010.02
2019-01-25T02:33:09.742Z,1010.05
2019-01-25T02:34:09.731Z,1010.00
2019-01-25T02:35:09.723Z,1010.03
2019-01-25T02:36:09.711Z,1010.03
2019-01-25T02:37:09.698Z,1010.06
2019-01-25T02:38:09.693Z,1010.05
2019-01-25T02:39:09.680Z,1010.01
2019-01-25T02:40:09.682Z,1010.04
2019-01-25T02:41:09.659Z,1010.00
2019-01-25T02:42:09.645Z,1010.01
2019-01-25T02:43:09.638Z,1009.98
2019-01-25T02:44:09.626Z,1010.00
2019-01-25T02:45:09.611Z,1009.99
2019-01-25T02:46:09.601Z,1010.01
2019-01-25T02:47:09.592Z,1009.94
2019-01-25T02:48:09.581Z,1009.95
2019-01-25T02:49:09.571Z,1009.93
2019-01-25T02:50:09.559Z,1009.93
2019-01-25T02:51:09.549Z,1009.97
2019-01-25T02:52:09.538Z,1010.01
2019-01-25T02:53:09.528Z,1009.97
2019-01-25T02:54:09.517Z,1010.01
2019-01-25T02:55:09.508Z,1010.00
2019-01-25T02:56:09.501Z,1009.96
2019-01-25T02:57:09.514Z,1009.98
2019-01-25T02:58:09.475Z,1009.95
2019-01-25T02:59:09.461Z,1009.97
2019-01-25T03:00:09.459Z,1009.97
2019-01-25T03:01:09.440Z,1009.99
2019-01-25T03:02:09.430Z,1009.96
2019-01-25T03:03:09.419Z,1009.95
2019-01-25T03:04:09.409Z,1009.94
2019-01-25T03:05:09.397Z,1009.95
2019-01-25T03:06:09.387Z,1009.96
2019-01-25T03:07:09.377Z,1009.93
2019-01-25T03:08:09.369Z,1009.94
2019-01-25T03:09:09.357Z,1009.92
2019-01-25T03:10:09.343Z,1009.87
2019-01-25T03:11:09.333Z,1009.94
2019-01-25T03:12:09.324Z,1009.92
2019-01-25T03:13:09.316Z,1009.87
2019-01-25T03:14:09.303Z,1009.97
2019-01-25T03:15:09.289Z,1009.90
2019-01-25T03:16:09.282Z,1009.88
2019-01-25T03:17:09.267Z,1009.89
2019-01-25T03:18:09.269Z,1009.88
2019-01-25T03:19:09.248Z,1009.88
2019-01-25T03:20:09.237Z,1009.88
2019-01-25T03:21:09.228Z,1009.89
2019-01-25T03:22:09.215Z,1009.88
2019-01-25T03:23:09.204Z,1009.86
2019-01-25T03:24:09.197Z,1009.84
2019-01-25T03:25:09.185Z,1009.87
2019-01-25T03:26:09.177Z,1009.87
2019-01-25T03:27:09.160Z,1009.82
2019-01-25T03:28:09.149Z,1009.86
2019-01-25T03:29:09.143Z,1009.85
2019-01-25T03:30:09.132Z,1009.87
2019-01-25T03:31:09.154Z,1009.96
2019-01-25T03:32:09.108Z,1009.95
2019-01-25T03:33:09.102Z,1009.94
2019-01-25T03:34:09.085Z,1009.94
2019-01-25T03:35:09.083Z,1009.97
2019-01-25T03:36:09.065Z,1009.92
2019-01-25T03:37:09.052Z,1009.95
2019-01-25T03:38:09.042Z,1009.94
2019-01-25T03:39:09.031Z,1009.95
2019-01-25T03:40:09.024Z,1010.00
2019-01-25T03:41:09.013Z,1010.01
2019-01-25T03:42:08.998Z,1010.05
2019-01-25T03:43:08.989Z,1010.02
2019-01-25T03:44:08.988Z,1010.02
2019-01-25T03:45:08.967Z,1010.00
2019-01-25T03:46:08.959Z,1010.02
2019-01-25T03:47:08.948Z,1010.00
2019-01-25T03:48:08.934Z,1010.03
2019-01-25T03:49:08.929Z,1010.03
2019-01-25T03:50:08.928Z,1010.03
2019-01-25T03:51:08.903Z,1010.03
2019-01-25T03:52:08.899Z,1010.05
2019-01-25T03:53:08.881Z,1010.01
2019-01-25T03:54:08.876Z,1010.04
2019-01-25T03:55:08.859Z,1010.02
2019-01-25T03:56:08.851Z,1010.02
2019-01-25T03:57:08.849Z,1010.03
2019-01-25T03:58:08.832Z,1010.03
2019-01-25T03:59:08.822Z,1010.02
2019-01-25T04:00:08.807Z,1010.00
2019-01-25T04:01:08.796Z,1010.06
2019-01-25T04:02:08.784Z,1010.05
2019-01-25T04:03:08.779Z,1010.07
2019-01-25T04:04:08.816Z,1010.04
2019-01-25T04:05:08.769Z,1010.03
2019-01-25T04:06:08.741Z,1010.09
2019-01-25T04:07:08.731Z,1010.04
2019-01-25T04:08:08.724Z,1010.03
2019-01-25T04:09:08.710Z,1010.06
2019-01-25T04:10:08.702Z,1010.05
2019-01-25T04:11:08.687Z,1010.06
2019-01-25T04:12:08.676Z,1010.10
2019-01-25T04:13:08.668Z,1010.04
2019-01-25T04:14:08.681Z,1010.02
2019-01-25T04:15:08.651Z,1010.04
2019-01-25T04:16:08.639Z,1010.04
2019-01-25T04:17:08.623Z,1010.03
2019-01-25T04:18:08.619Z,1010.01
2019-01-25T04:19:08.604Z,1010.03
2019-01-25T04:20:08.592Z,1010.05
2019-01-25T04:21:08.579Z,1010.03
2019-01-25T04:22:08.571Z,1010.05
2019-01-25T04:23:08.558Z,1010.05
2019-01-25T04:24:08.549Z,1010.08
2019-01-25T04:25:08.539Z,1010.02
2019-01-25T04:26:08.528Z,1010.02
2019-01-25T04:27:08.518Z,1010.02
2019-01-25T04:28:08.507Z,1010.06
2019-01-25T04:29:08.494Z,1010.06
2019-01-25T04:30:08.485Z,1010.10
2019-01-25T04:31:08.473Z,1010.07
2019-01-25T04:32:08.463Z,1010.03
2019-01-25T04:33:08.451Z,1010.07
2019-01-25T04:34:08.443Z,1010.06
2019-01-25T04:35:08.446Z,1010.10
2019-01-25T04:36:08.419Z,1010.09
2019-01-25T04:37:08.409Z,1010.10
2019-01-25T04:38:08.409Z,1010.12
2019-01-25T04:39:08.386Z,1010.12
2019-01-25T04:40:08.382Z,1010.13
2019-01-25T04:41:11.823Z,1010.09
2019-01-25T04:42:08.354Z,1010.08
2019-01-25T04:43:08.343Z,1010.10
2019-01-25T04:44:08.344Z,1010.08
2019-01-25T04:45:08.322Z,1010.05
2019-01-25T04:46:08.321Z,1010.05
2019-01-25T04:47:08.300Z,1010.02
2019-01-25T04:48:08.290Z,1010.04
2019-01-25T04:49:08.278Z,1010.03
2019-01-25T04:50:08.268Z,1010.07
2019-01-25T04:51:08.277Z,1010.05
2019-01-25T04:52:08.248Z,1010.06
2019-01-25T04:53:08.236Z,1010.05
2019-01-25T04:54:08.228Z,1010.05
2019-01-25T04:55:08.218Z,1010.06
2019-01-25T04:56:08.203Z,1010.08
2019-01-25T04:57:08.192Z,1010.03
2019-01-25T04:58:08.182Z,1010.09
2019-01-25T04:59:08.172Z,1010.06
2019-01-25T05:00:08.160Z,1010.07
2019-01-25T05:01:08.149Z,1010.09
2019-01-25T05:02:08.142Z,1010.07
2019-01-25T05:03:08.129Z,1010.10
2019-01-25T05:04:08.128Z,1010.02
2019-01-25T05:05:08.108Z,1010.06
2019-01-25T05:06:08.096Z,1010.06
2019-01-25T05:07:08.093Z,1010.04
2019-01-25T05:08:08.078Z,1010.11
2019-01-25T05:09:08.063Z,1010.08
2019-01-25T05:10:08.054Z,1010.12
2019-01-25T05:11:08.061Z,1010.14
2019-01-25T05:12:08.034Z,1010.07
2019-01-25T05:13:08.020Z,1010.09
2019-01-25T05:14:08.012Z,1010.07
2019-01-25T05:15:08.003Z,1010.11
2019-01-25T05:16:07.989Z,1010.11
2019-01-25T05:17:07.983Z,1010.11
2019-01-25T05:18:07.975Z,1010.12
2019-01-25T05:19:07.958Z,1010.15
2019-01-25T05:20:07.948Z,1010.16
2019-01-25T05:21:07.943Z,1010.11
2019-01-25T05:22:07.925Z,1010.16
2019-01-25T05:23:07.918Z,1010.14
2019-01-25T05:24:07.906Z,1010.18
2019-01-25T05:25:07.891Z,1010.13
2019-01-25T05:26:07.887Z,1010.11
2019-01-25T05:27:07.871Z,1010.15
2019-01-25T05:28:09.662Z,1010.14
2019-01-25T05:29:07.850Z,1010.11
2019-01-25T05:30:07.839Z,1010.11
2019-01-25T05:31:07.833Z,1010.15
2019-01-25T05:32:07.818Z,1010.09
2019-01-25T05:33:07.807Z,1010.14
2019-01-25T05:34:07.795Z,1010.07
2019-01-25T05:35:07.790Z,1010.09
2019-01-25T05:36:07.774Z,1010.13
2019-01-25T05:37:07.763Z,1010.14
2019-01-25T05:38:07.752Z,1010.14
2019-01-25T05:39:07.743Z,1010.10
2019-01-25T05:40:07.734Z,1010.10
2019-01-25T05:41:07.719Z,1010.10
2019-01-25T05:42:07.710Z,1010.06
2019-01-25T05:43:07.705Z,1010.10
2019-01-25T05:44:07.690Z,1010.10
2019-01-25T05:45:07.683Z,1010.08
2019-01-25T05:46:07.666Z,1010.14
2019-01-25T05:47:07.657Z,1010.11
2019-01-25T05:48:07.645Z,1010.10
2019-01-25T05:49:07.643Z,1010.11
2019-01-25T05:50:07.629Z,1010.07
2019-01-25T05:51:07.616Z,1010.07
2019-01-25T05:52:07.604Z,1010.01
2019-01-25T05:53:07.590Z,1010.02
2019-01-25T05:54:07.584Z,1010.03
2019-01-25T05:55:07.569Z,1009.99
2019-01-25T05:56:07.562Z,1010.01
2019-01-25T05:57:07.554Z,1010.02
2019-01-25T05:58:07.539Z,1010.01
2019-01-25T05:59:07.528Z,1010.03
2019-01-25T06:00:07.523Z,1010.02
2019-01-25T06:01:07.503Z,1010.04
2019-01-25T06:02:07.498Z,1010.05
2019-01-25T06:03:07.499Z,1010.03
2019-01-25T06:04:07.472Z,1010.06
2019-01-25T06:05:07.462Z,1010.01
2019-01-25T06:06:07.453Z,1010.00
2019-01-25T06:07:07.474Z,1009.97
2019-01-25T06:08:07.433Z,1009.96
2019-01-25T06:09:07.418Z,1009.98
2019-01-25T06:10:07.407Z,1009.92
2019-01-25T06:11:07.398Z,1010.02
2019-01-25T06:12:07.385Z,1010.04
2019-01-25T06:13:07.380Z,1010.05
2019-01-25T06:14:07.365Z,1010.05
2019-01-25T06:15:07.355Z,1010.03
2019-01-25T06:16:07.344Z,1010.01
2019-01-25T06:17:07.338Z,1010.05
2019-01-25T06:18:07.321Z,1010.07
2019-01-25T06:19:07.313Z,1010.02
2019-01-25T06:20:07.300Z,1010.04
2019-01-25T06:21:07.291Z,1010.03
2019-01-25T06:22:07.292Z,1010.03
2019-01-25T06:23:07.269Z,1010.01
2019-01-25T06:24:07.257Z,1010.05
2019-01-25T06:25:07.270Z,1010.07
2019-01-25T06:26:07.240Z,1010.06
2019-01-25T06:27:07.224Z,1010.12
2019-01-25T06:28:07.220Z,1010.16
2019-01-25T06:29:07.208Z,1010.10
2019-01-25T06:30:07.192Z,1010.10
2019-01-25T06:31:07.190Z,1010.09
2019-01-25T06:32:07.170Z,1010.07
2019-01-25T06:33:07.179Z,1010.10
2019-01-25T06:34:07.157Z,1010.09
2019-01-25T06:35:07.140Z,1010.11
2019-01-25T06:36:07.128Z,1010.11
2019-01-25T06:37:07.126Z,1010.13
2019-01-25T06:38:07.114Z,1010.14
2019-01-25T06:39:07.095Z,1010.06
2019-01-25T06:40:07.089Z,1010.12
2019-01-25T06:41:07.079Z,1010.14
2019-01-25T06:42:07.063Z,1010.16
2019-01-25T06:43:07.055Z,1010.14
2019-01-25T06:44:07.049Z,1010.19
2019-01-25T06:45:07.031Z,1010.21
2019-01-25T06:46:07.019Z,1010.22
2019-01-25T06:47:07.009Z,1010.25
2019-01-25T06:48:07.002Z,1010.26
2019-01-25T06:49:06.991Z,1010.22
2019-01-25T06:50:06.977Z,1010.20
2019-01-25T06:51:06.972Z,1010.19
2019-01-25T06:52:06.959Z,1010.25
2019-01-25T06:53:06.948Z,1010.23
2019-01-25T06:54:06.935Z,1010.32
2019-01-25T06:55:06.926Z,1010.26
2019-01-25T06:56:06.917Z,1010.26
2019-01-25T06:57:06.902Z,1010.28
2019-01-25T06:58:06.899Z,1010.26
2019-01-25T06:59:06.881Z,1010.27
2019-01-25T07:00:06.869Z,1010.25
2019-01-25T07:01:06.859Z,1010.29
2019-01-25T07:02:06.848Z,1010.27
2019-01-25T07:03:06.841Z,1010.29
2019-01-25T07:04:06.831Z,1010.30
2019-01-25T07:05:06.820Z,1010.34
2019-01-25T07:06:06.805Z,1010.39
2019-01-25T07:07:06.793Z,1010.42
2019-01-25T07:08:06.783Z,1010.37
2019-01-25T07:09:06.774Z,1010.39
2019-01-25T07:10:06.764Z,1010.45
2019-01-25T07:11:06.750Z,1010.43
2019-01-25T07:12:06.741Z,1010.42
2019-01-25T07:13:06.731Z,1010.44
2019-01-25T07:14:06.721Z,1010.47
2019-01-25T07:15:06.710Z,1010.48
2019-01-25T07:16:06.701Z,1010.47
2019-01-25T07:17:06.692Z,1010.45
2019-01-25T07:18:06.676Z,1010.47
2019-01-25T07:19:06.666Z,1010.47
2019-01-25T07:20:06.658Z,1010.46
2019-01-25T07:21:06.663Z,1010.45
2019-01-25T07:22:06.637Z,1010.49
2019-01-25T07:23:06.623Z,1010.46
2019-01-25T07:24:06.611Z,1010.51
2019-01-25T07:25:06.600Z,1010.53
2019-01-25T07:26:06.594Z,1010.52
2019-01-25T07:27:06.578Z,1010.50
2019-01-25T07:28:06.567Z,1010.53
2019-01-25T07:29:06.570Z,1010.52
2019-01-25T07:30:06.572Z,1010.55
2019-01-25T07:31:06.569Z,1010.58
2019-01-25T07:32:06.526Z,1010.52
2019-01-25T07:33:06.516Z,1010.54
2019-01-25T07:34:06.519Z,1010.56
2019-01-25T07:35:06.513Z,1010.55
2019-01-25T07:36:06.550Z,1010.53
2019-01-25T07:37:06.472Z,1010.48
2019-01-25T07:38:06.461Z,1010.46
2019-01-25T07:39:06.465Z,1010.46
2019-01-25T07:40:06.458Z,1010.47
2019-01-25T07:41:06.450Z,1010.54
2019-01-25T07:42:06.419Z,1010.48
2019-01-25T07:43:06.417Z,1010.53
2019-01-25T07:44:06.397Z,1010.52
2019-01-25T07:45:06.425Z,1010.49
2019-01-25T07:46:06.378Z,1010.48
2019-01-25T07:47:06.413Z,1010.49
2019-01-25T07:48:06.355Z,1010.50
2019-01-25T07:49:06.343Z,1010.48
2019-01-25T07:50:06.352Z,1010.47
2019-01-25T07:51:06.342Z,1010.44
2019-01-25T07:52:06.312Z,1010.49
2019-01-25T07:53:06.318Z,1010.48
2019-01-25T07:54:06.289Z,1010.48
2019-01-25T07:55:06.332Z,1010.46
2019-01-25T07:56:06.285Z,1010.47
2019-01-25T07:57:06.282Z,1010.46
2019-01-25T07:58:06.252Z,1010.48
2019-01-25T07:59:06.244Z,1010.50
2019-01-25T08:00:06.237Z,1010.46
2019-01-25T08:01:06.230Z,1010.43
2019-01-25T08:02:06.233Z,1010.44
2019-01-25T08:03:06.202Z,1010.49
2019-01-25T08:04:06.216Z,1010.52
2019-01-25T08:05:06.173Z,1010.50
2019-01-25T08:06:06.160Z,1010.51
2019-01-25T08:07:06.159Z,1010.50
2019-01-25T08:08:06.146Z,1010.51
2019-01-25T08:09:06.145Z,1010.48
2019-01-25T08:10:06.127Z,1010.49
2019-01-25T08:11:06.128Z,1010.41
2019-01-25T08:12:07.477Z,1010.39
2019-01-25T08:13:06.100Z,1010.44
2019-01-25T08:14:06.101Z,1010.43
2019-01-25T08:15:06.074Z,1010.46
2019-01-25T08:16:06.052Z,1010.47
2019-01-25T08:17:06.057Z,1010.45
2019-01-25T08:18:06.072Z,1010.49
2019-01-25T08:19:06.037Z,1010.48
2019-01-25T08:20:06.021Z,1010.50
2019-01-25T08:21:06.017Z,1010.47
2019-01-25T08:22:06.010Z,1010.53
2019-01-25T08:23:06.005Z,1010.55
2019-01-25T08:24:06.039Z,1010.48
2019-01-25T08:25:05.970Z,1010.54
2019-01-25T08:26:05.985Z,1010.59
2019-01-25T08:27:05.944Z,1010.57
2019-01-25T08:28:05.941Z,1010.54
2019-01-25T08:29:05.929Z,1010.53
2019-01-25T08:30:05.925Z,1010.52
2019-01-25T08:31:05.891Z,1010.51
2019-01-25T08:32:05.945Z,1010.51
2019-01-25T08:33:05.878Z,1010.42
2019-01-25T08:34:05.885Z,1010.51
2019-01-25T08:35:05.869Z,1010.48
2019-01-25T08:36:05.881Z,1010.48
2019-01-25T08:37:05.871Z,1010.48
2019-01-25T08:38:06.621Z,1010.52
2019-01-25T08:39:05.820Z,1010.50
2019-01-25T08:40:05.825Z,1010.52
2019-01-25T08:41:05.817Z,1010.53
2019-01-25T08:42:05.774Z,1010.51
2019-01-25T08:43:05.802Z,1010.50
2019-01-25T08:44:05.750Z,1010.53
2019-01-25T08:45:05.763Z,1010.51
2019-01-25T08:46:05.732Z,1010.49
2019-01-25T08:47:05.805Z,1010.54
2019-01-25T08:48:05.773Z,1010.53
2019-01-25T08:49:05.703Z,1010.54
2019-01-25T08:50:05.722Z,1010.56
2019-01-25T08:51:05.680Z,1010.56
2019-01-25T08:52:05.728Z,1010.61
2019-01-25T08:53:05.795Z,1010.57
2019-01-25T08:54:05.739Z,1010.55
2019-01-25T08:55:05.677Z,1010.59
2019-01-25T08:56:05.630Z,1010.52
2019-01-25T08:57:05.647Z,1010.56
2019-01-25T08:58:05.611Z,1010.57
2019-01-25T08:59:05.590Z,1010.59
2019-01-25T09:00:05.588Z,1010.57
2019-01-25T09:01:05.568Z,1010.60
2019-01-25T09:02:05.556Z,1010.59
2019-01-25T09:03:05.546Z,1010.59
2019-01-25T09:04:05.542Z,1010.61
2019-01-25T09:05:05.524Z,1010.61
2019-01-25T09:06:05.513Z,1010.58
2019-01-25T09:07:05.504Z,1010.59
2019-01-25T09:08:05.491Z,1010.60
2019-01-25T09:09:05.479Z,1010.59
2019-01-25T09:10:05.470Z,1010.57
2019-01-25T09:11:05.462Z,1010.59
2019-01-25T09:12:05.448Z,1010.58
2019-01-25T09:13:05.437Z,1010.63
2019-01-25T09:14:05.429Z,1010.65
2019-01-25T09:15:05.415Z,1010.63
2019-01-25T09:16:05.404Z,1010.61
2019-01-25T09:17:05.397Z,1010.59
2019-01-25T09:18:05.384Z,1010.57
2019-01-25T09:19:05.372Z,1010.61
2019-01-25T09:20:05.361Z,1010.59
2019-01-25T09:21:05.350Z,1010.60
2019-01-25T09:22:05.340Z,1010.62
2019-01-25T09:23:05.336Z,1010.64
2019-01-25T09:24:05.321Z,1010.66
2019-01-25T09:25:05.307Z,1010.66
2019-01-25T09:26:05.297Z,1010.68
2019-01-25T09:27:05.286Z,1010.70
2019-01-25T09:28:05.277Z,1010.66
2019-01-25T09:29:05.264Z,1010.69
2019-01-25T09:30:05.254Z,1010.67
2019-01-25T09:31:05.242Z,1010.72
2019-01-25T09:32:05.233Z,1010.71
2019-01-25T09:33:05.226Z,1010.68
2019-01-25T09:34:05.216Z,1010.72
2019-01-25T09:35:06.841Z,1010.71
2019-01-25T09:36:05.191Z,1010.69
2019-01-25T09:37:05.182Z,1010.73
2019-01-25T09:38:05.168Z,1010.77
2019-01-25T09:39:05.159Z,1010.77
2019-01-25T09:40:05.146Z,1010.73
2019-01-25T09:41:05.138Z,1010.71
2019-01-25T09:42:05.124Z,1010.69
2019-01-25T09:43:05.119Z,1010.76
2019-01-25T09:44:05.102Z,1010.71
2019-01-25T09:45:05.092Z,1010.73
2019-01-25T09:46:05.081Z,1010.74
2019-01-25T09:47:05.071Z,1010.74
2019-01-25T09:48:05.061Z,1010.71
2019-01-25T09:49:05.057Z,1010.69
2019-01-25T09:50:05.039Z,1010.65
2019-01-25T09:51:05.038Z,1010.69
2019-01-25T09:52:05.023Z,1010.67
2019-01-25T09:53:05.005Z,1010.63
2019-01-25T09:54:04.994Z,1010.65
2019-01-25T09:55:04.983Z,1010.65
2019-01-25T09:56:04.973Z,1010.67
2019-01-25T09:57:04.962Z,1010.69
2019-01-25T09:58:04.958Z,1010.66
2019-01-25T09:59:04.944Z,1010.72
2019-01-25T10:00:04.930Z,1010.58
2019-01-25T10:01:04.979Z,1010.63
2019-01-25T10:02:04.910Z,1010.61
2019-01-25T10:03:04.898Z,1010.63
2019-01-25T10:04:04.886Z,1010.63
2019-01-25T10:05:04.875Z,1010.64
2019-01-25T10:06:04.866Z,1010.66
2019-01-25T10:07:04.859Z,1010.56
2019-01-25T10:08:04.844Z,1010.61
2019-01-25T10:09:04.834Z,1010.61
2019-01-25T10:10:04.824Z,1010.58
2019-01-25T10:11:04.811Z,1010.59
2019-01-25T10:12:04.799Z,1010.55
2019-01-25T10:13:04.789Z,1010.55
2019-01-25T10:14:04.778Z,1010.50
2019-01-25T10:15:04.767Z,1010.50
2019-01-25T10:16:04.757Z,1010.42
2019-01-25T10:17:04.747Z,1010.37
2019-01-25T10:18:04.737Z,1010.43
2019-01-25T10:19:04.724Z,1010.41
2019-01-25T10:20:04.719Z,1010.40
2019-01-25T10:21:04.703Z,1010.42
2019-01-25T10:22:04.697Z,1010.39
2019-01-25T10:23:04.681Z,1010.42
2019-01-25T10:24:04.670Z,1010.38
2019-01-25T10:25:24.322Z,1010.37
2019-01-25T10:26:46.215Z,1010.35
2019-01-25T10:27:47.278Z,1010.34
2019-01-25T10:29:27.749Z,1010.32
2019-01-25T10:30:27.721Z,1010.33
2019-01-25T10:31:27.709Z,1010.26
2019-01-25T10:32:27.701Z,1010.30
2019-01-25T10:33:27.689Z,1010.27
2019-01-25T10:34:27.683Z,1010.27
2019-01-25T10:35:27.668Z,1010.24
2019-01-25T10:36:27.655Z,1010.29
2019-01-25T10:37:27.649Z,1010.24
2019-01-25T10:38:27.634Z,1010.26
2019-01-25T10:39:27.636Z,1010.25
2019-01-25T10:40:27.614Z,1010.25
2019-01-25T10:41:27.601Z,1010.26
2019-01-25T10:42:27.599Z,1010.28
2019-01-25T10:43:27.578Z,1010.27
2019-01-25T10:44:27.568Z,1010.32
2019-01-25T10:45:27.557Z,1010.34
2019-01-25T10:46:27.549Z,1010.35
2019-01-25T10:47:27.536Z,1010.35
2019-01-25T10:48:27.524Z,1010.33
2019-01-25T10:49:27.513Z,1010.36
2019-01-25T10:50:27.508Z,1010.28
2019-01-25T10:51:27.495Z,1010.31
2019-01-25T10:52:27.482Z,1010.32
2019-01-25T10:53:27.470Z,1010.30
2019-01-25T10:54:27.464Z,1010.35
2019-01-25T10:55:27.448Z,1010.33
2019-01-25T10:56:27.438Z,1010.31
2019-01-25T10:57:27.426Z,1010.28
2019-01-25T10:58:27.415Z,1010.26
2019-01-25T10:59:27.408Z,1010.34
2019-01-25T11:00:27.396Z,1010.30
2019-01-25T11:01:27.384Z,1010.28
2019-01-25T11:02:27.377Z,1010.30
2019-01-25T11:03:27.364Z,1010.27
2019-01-25T11:04:27.349Z,1010.19
2019-01-25T11:05:27.340Z,1010.22
2019-01-25T11:06:27.328Z,1010.18
2019-01-25T11:07:27.317Z,1010.20
2019-01-25T11:08:27.309Z,1010.16
2019-01-25T11:09:27.296Z,1010.18
2019-01-25T11:10:27.283Z,1010.19
2019-01-25T11:11:27.300Z,1010.19
2019-01-25T11:12:27.263Z,1010.18
2019-01-25T11:13:27.254Z,1010.16
2019-01-25T11:14:27.242Z,1010.16
2019-01-25T11:15:27.231Z,1010.19
2019-01-25T11:16:27.218Z,1010.14
2019-01-25T11:17:27.206Z,1010.09
2019-01-25T11:18:27.195Z,1010.06
2019-01-25T11:19:27.185Z,1010.11
2019-01-25T11:20:27.190Z,1010.08
2019-01-25T11:21:27.169Z,1010.11
2019-01-25T11:22:27.153Z,1010.11
2019-01-25T11:23:27.141Z,1010.12
2019-01-25T11:24:27.131Z,1010.11
2019-01-25T11:25:27.125Z,1010.14
2019-01-25T11:26:27.114Z,1010.12
2019-01-25T11:27:27.099Z,1010.07
2019-01-25T11:28:27.086Z,1010.03
2019-01-25T11:30:55.037Z,1010.01
2019-01-25T11:33:43.603Z,1010.05
2019-01-25T11:34:41.090Z,1010.00
2019-01-25T11:36:04.994Z,1010.04
2019-01-25T11:37:04.990Z,1010.06
2019-01-25T11:38:04.973Z,1010.02
2019-01-25T11:39:23.108Z,1009.98
2019-01-25T11:40:46.999Z,1010.04
2019-01-25T11:42:06.621Z,1010.03
2019-01-25T11:43:49.112Z,1010.05
2019-01-25T11:44:29.011Z,1010.04
2019-01-25T11:45:29.011Z,1010.07
2019-01-25T11:46:28.989Z,1010.02
2019-01-25T11:47:28.978Z,1010.04
2019-01-25T11:48:49.622Z,1010.07
2019-01-25T11:50:11.010Z,1010.08
2019-01-25T11:51:11.062Z,1010.04
2019-01-25T11:52:10.984Z,1010.01
2019-01-25T11:53:30.607Z,1010.03
2019-01-25T11:54:52.530Z,1010.04
2019-01-25T11:55:52.499Z,1010.03
2019-01-25T11:57:34.536Z,1010.02
2019-01-25T11:58:34.526Z,1009.96
2019-01-25T11:59:52.652Z,1010.01
2019-01-25T12:01:16.551Z,1010.03
2019-01-25T12:02:20.903Z,1009.98
2019-01-25T12:03:16.532Z,1009.92
2019-01-25T12:04:16.517Z,1009.92
2019-01-25T12:05:16.526Z,1009.93
2019-01-25T12:06:16.498Z,1010.00
2019-01-25T12:07:16.486Z,1009.95
2019-01-25T12:08:16.476Z,1009.93
2019-01-25T12:09:16.468Z,1009.93
2019-01-25T12:10:16.451Z,1009.94
2019-01-25T12:11:16.441Z,1009.94
2019-01-25T12:12:16.429Z,1009.94
2019-01-25T12:13:16.583Z,1009.96
2019-01-25T12:14:16.410Z,1009.88